Time;durP1;ratioP1;P1;durP2;ratioP2;P2;SDS_P1;SDS_P2;PMS_P1;PMS_P2;Temp;Humidity;BMP_temperature;BMP_pressure;BME280_temperature;BME280_humidity;BME280_pressure;Samples;Min_cycle;Max_cycle;Signal;HPM_P1;HPM_P2
2023/01/29 00:01:49;;;;;;;7.93;7.13;;;;;;;2.21;81.10;95160.56;5062245;28;20258;-74
2023/01/29 00:04:16;;;;;;;10.27;7.13;;;;;;;2.16;81.31;95167.22;5061623;28;20291;-77
2023/01/29 00:06:44;;;;;;;10.40;8.20;;;;;;;2.15;81.83;95175.59;5060646;28;20581;-77
2023/01/29 00:09:12;;;;;;;9.53;7.80;;;;;;;2.13;81.74;95165.56;5059589;28;20226;-76
2023/01/29 00:11:39;;;;;;;8.67;7.17;;;;;;;2.22;81.71;95177.28;5061876;28;20513;-76
2023/01/29 00:14:06;;;;;;;9.27;7.60;;;;;;;2.17;81.42;95171.41;5061237;28;20221;-73
2023/01/29 00:16:32;;;;;;;9.40;7.50;;;;;;;2.01;81.21;95148.81;5059647;28;20294;-74
2023/01/29 00:19:00;;;;;;;8.77;7.20;;;;;;;2.20;81.10;95179.78;5061459;28;20270;-76
2023/01/29 00:21:27;;;;;;;9.40;7.70;;;;;;;2.26;80.65;95188.94;5061328;28;20229;-75
2023/01/29 00:23:55;;;;;;;7.60;6.90;;;;;;;2.27;80.85;95185.59;5062672;28;20209;-75
2023/01/29 00:26:22;;;;;;;11.17;8.37;;;;;;;2.26;81.49;95187.28;5059571;28;21503;-74
2023/01/29 00:28:49;;;;;;;8.40;7.00;;;;;;;2.26;81.70;95186.44;5060937;28;20774;-74
2023/01/29 00:31:18;;;;;;;10.37;8.00;;;;;;;2.27;81.66;95180.59;5060886;28;20339;-76
2023/01/29 00:33:45;;;;;;;12.70;8.40;;;;;;;2.24;81.66;95195.63;5060034;28;20233;-75
2023/01/29 00:36:13;;;;;;;8.47;7.30;;;;;;;2.21;81.35;95195.66;5061233;28;20275;-75
2023/01/29 00:38:40;;;;;;;11.10;7.67;;;;;;;2.21;81.49;95183.13;5063269;28;20738;-76
2023/01/29 00:46:39;;;;;;;12.97;8.40;;;;;;;2.20;81.83;95174.75;5060778;28;21106;-75
2023/01/29 00:49:06;;;;;;;11.77;8.67;;;;;;;2.25;81.16;95192.28;5062450;28;20247;-76
2023/01/29 00:51:33;;;;;;;7.83;7.03;;;;;;;2.33;81.39;95195.63;5061530;28;20253;-76
2023/01/29 00:54:00;;;;;;;11.07;7.80;;;;;;;2.17;81.52;95183.94;5061785;28;20581;-75
2023/01/29 00:56:29;;;;;;;9.67;6.77;;;;;;;2.26;81.17;95193.97;5062115;28;20388;-74
2023/01/29 00:58:56;;;;;;;8.63;7.53;;;;;;;2.26;81.26;95189.78;5064460;28;20329;-78
2023/01/29 01:04:04;;;;;;;9.23;7.80;;;;;;;2.10;82.40;95185.59;5063161;28;20586;-74
2023/01/29 01:06:31;;;;;;;9.53;7.27;;;;;;;2.00;82.36;95167.19;5062688;28;20233;-77
2023/01/29 01:11:44;;;;;;;10.10;7.27;;;;;;;2.08;81.37;95178.91;5065680;28;20298;-75
2023/01/29 01:14:10;;;;;;;8.60;6.70;;;;;;;2.08;81.72;95189.78;5063361;28;20221;-75
2023/01/29 01:16:37;;;;;;;10.10;7.80;;;;;;;2.11;81.81;95181.44;5063848;28;20680;-76
2023/01/29 01:19:04;;;;;;;8.27;6.53;;;;;;;2.16;81.68;95182.28;5061654;28;20262;-75
2023/01/29 01:21:32;;;;;;;9.70;6.80;;;;;;;2.15;80.16;95181.44;5063142;28;20692;-75
2023/01/29 01:23:58;;;;;;;8.93;6.90;;;;;;;2.08;81.74;95186.44;5064954;28;20251;-75
2023/01/29 01:26:26;;;;;;;8.23;6.50;;;;;;;2.03;81.03;95181.41;5063271;28;20233;-78
2023/01/29 01:28:54;;;;;;;9.93;6.60;;;;;;;2.01;81.92;95183.91;5062464;28;20206;-75
2023/01/29 01:31:21;;;;;;;8.03;6.60;;;;;;;2.00;82.36;95179.72;5065015;28;20684;-75
2023/01/29 01:33:47;;;;;;;7.60;6.13;;;;;;;1.98;81.62;95178.91;5065060;28;20290;-77
2023/01/29 01:36:14;;;;;;;8.20;6.90;;;;;;;1.84;81.93;95180.56;5064730;28;20314;-78
2023/01/29 01:38:44;;;;;;;8.53;7.20;;;;;;;1.95;82.74;95180.59;5062657;28;20299;-74
2023/01/29 01:41:12;;;;;;;9.53;7.67;;;;;;;2.03;81.58;95177.22;5063650;28;20208;-73
2023/01/29 01:43:50;;;;;;;7.37;6.30;;;;;;;2.07;81.74;95179.75;5063209;28;21707;-77
2023/01/29 01:46:18;;;;;;;7.97;6.67;;;;;;;2.07;82.43;95177.25;5065227;28;20293;-75
2023/01/29 01:48:49;;;;;;;9.13;7.17;;;;;;;2.06;81.70;95176.41;5064151;28;20285;-79
2023/01/29 01:51:16;;;;;;;7.90;6.20;;;;;;;2.02;81.77;95180.56;5063073;28;20992;-75
2023/01/29 01:53:47;;;;;;;8.20;6.80;;;;;;;1.96;82.66;95180.59;5063879;28;20209;-77
2023/01/29 01:56:19;;;;;;;7.20;6.53;;;;;;;1.96;82.33;95195.63;5063990;28;21020;-81
2023/01/29 01:58:50;;;;;;;7.77;6.97;;;;;;;2.01;83.74;95188.94;5061174;28;20225;-76
2023/01/29 02:01:26;;;;;;;8.97;6.77;;;;;;;2.08;83.60;95189.78;5062352;28;20207;-76
2023/01/29 02:09:35;;;;;;;8.43;7.33;;;;;;;2.19;82.42;95192.31;5063943;28;20812;-75
2023/01/29 02:12:03;;;;;;;8.80;7.73;;;;;;;2.10;82.91;95188.09;5064272;28;20216;-76
2023/01/29 02:14:33;;;;;;;9.47;6.83;;;;;;;2.18;82.53;95195.66;5063947;28;20595;-75
2023/01/29 02:17:01;;;;;;;8.73;7.77;;;;;;;2.18;82.49;95185.63;5066376;28;20221;-81
2023/01/29 02:19:41;;;;;;;12.13;7.57;;;;;;;2.17;83.06;95193.97;5065340;28;20226;-73
2023/01/29 02:22:34;;;;;;;9.30;6.37;;;;;;;2.13;82.80;95188.13;5061412;28;20213;-75
2023/01/29 02:25:49;;;;;;;9.17;6.37;;;;;;;2.07;82.89;95187.28;5064812;28;20202;-76
2023/01/29 02:28:32;;;;;;;8.47;6.77;;;;;;;2.03;83.50;95192.28;5042441;28;20664;-75
2023/01/29 02:31:06;;;;;;;7.97;6.60;;;;;;;2.09;83.28;95191.44;5061743;28;20210;-75
2023/01/29 02:33:43;;;;;;;6.00;5.43;;;;;;;2.15;83.53;95201.50;5065271;28;20197;-75
2023/01/29 02:36:21;;;;;;;8.30;6.87;;;;;;;2.11;83.36;95198.97;5065349;28;20209;-77
2023/01/29 02:38:57;;;;;;;6.97;6.33;;;;;;;2.04;84.53;95198.97;5063642;28;20718;-76
2023/01/29 02:41:28;;;;;;;10.23;7.07;;;;;;;2.03;84.07;95206.47;5061291;28;20611;-75
2023/01/29 02:44:03;;;;;;;9.97;7.40;;;;;;;2.17;83.18;95206.50;5064199;28;20272;-76
2023/01/29 02:46:35;;;;;;;8.03;7.20;;;;;;;2.16;82.88;95207.34;5063370;28;20248;-75
2023/01/29 02:49:10;;;;;;;8.57;7.03;;;;;;;2.09;82.96;95208.16;5064304;28;20267;-75
2023/01/29 02:51:44;;;;;;;11.97;8.27;;;;;;;2.19;82.95;95213.19;5066766;28;20212;-76
2023/01/29 02:54:16;;;;;;;8.67;7.60;;;;;;;2.18;84.05;95210.69;5062577;28;20214;-78
2023/01/29 02:56:51;;;;;;;9.43;7.63;;;;;;;2.13;83.21;95213.19;5061217;28;20213;-76
2023/01/29 02:59:22;;;;;;;7.90;7.10;;;;;;;2.13;84.17;95208.16;5062884;28;20227;-79
2023/01/29 03:01:54;;;;;;;11.43;8.17;;;;;;;2.16;84.89;95208.19;5064050;28;20734;-74
2023/01/29 03:04:25;;;;;;;9.17;6.60;;;;;;;2.15;84.26;95203.16;5062016;28;20562;-74
2023/01/29 03:06:58;;;;;;;7.57;6.77;;;;;;;2.23;84.37;95214.00;5061119;28;20204;-75
2023/01/29 03:09:30;;;;;;;6.80;6.20;;;;;;;2.21;84.33;95210.69;5062364;28;20198;-78
2023/01/29 03:12:17;;;;;;;7.80;7.07;;;;;;;2.10;84.01;95187.28;5062189;28;20197;-73
2023/01/29 03:17:40;;;;;;;7.53;6.37;;;;;;;2.10;85.08;95208.16;5061231;28;20621;-76
2023/01/29 03:20:14;;;;;;;8.17;6.00;;;;;;;2.16;85.17;95219.88;5061245;28;20225;-78
2023/01/29 03:22:45;;;;;;;6.63;5.87;;;;;;;2.05;84.84;95222.34;5060906;28;20581;-76
2023/01/29 03:33:44;;;;;;;6.57;6.03;;;;;;;2.17;83.73;95229.06;5061583;28;20313;-75
2023/01/29 03:36:17;;;;;;;6.60;5.63;;;;;;;2.13;83.08;95222.38;5061543;28;20205;-78
2023/01/29 03:38:44;;;;;;;6.40;5.80;;;;;;;2.16;83.30;95227.41;5062842;28;20205;-75
2023/01/29 03:41:22;;;;;;;6.57;5.70;;;;;;;2.09;83.67;95228.22;5061906;28;20663;-79
2023/01/29 03:43:55;;;;;;;7.20;5.93;;;;;;;2.10;83.43;95222.38;5061697;28;20205;-76
2023/01/29 03:46:28;;;;;;;5.40;4.90;;;;;;;2.05;83.68;95220.69;5059774;28;20213;-74
2023/01/29 03:49:02;;;;;;;6.73;6.13;;;;;;;2.08;84.29;95219.03;5062117;28;20324;-78
2023/01/29 03:51:36;;;;;;;5.73;5.23;;;;;;;2.12;83.70;95219.03;5060430;28;20753;-77
2023/01/29 03:54:10;;;;;;;6.03;5.43;;;;;;;2.04;84.32;95219.00;5062539;28;20213;-74
2023/01/29 03:56:49;;;;;;;5.33;4.83;;;;;;;2.00;84.07;95212.31;5060991;28;20213;-77
2023/01/29 03:59:26;;;;;;;5.97;5.50;;;;;;;2.01;84.44;95223.19;5060711;28;20274;-78
2023/01/29 04:01:58;;;;;;;6.77;5.50;;;;;;;2.03;84.16;95224.03;5062225;28;20706;-75
2023/01/29 04:04:29;;;;;;;5.67;5.10;;;;;;;2.11;84.04;95212.34;5062521;28;20761;-74
2023/01/29 04:07:01;;;;;;;5.53;4.90;;;;;;;2.08;83.18;95214.00;5060411;28;20582;-80
2023/01/29 04:09:31;;;;;;;5.67;5.17;;;;;;;2.07;83.48;95224.88;5062519;28;20630;-77
2023/01/29 04:12:06;;;;;;;5.87;5.17;;;;;;;2.04;84.54;95218.19;5060040;28;20202;-78
2023/01/29 04:14:33;;;;;;;5.97;5.37;;;;;;;1.96;84.70;95229.88;5060937;28;20205;-75
2023/01/29 04:17:06;;;;;;;5.27;4.87;;;;;;;2.03;84.96;95231.53;5061350;28;20208;-76
2023/01/29 04:19:34;;;;;;;6.00;5.50;;;;;;;1.98;83.68;95229.03;5060911;28;20768;-76
2023/01/29 04:22:06;;;;;;;11.40;5.43;;;;;;;1.94;85.18;95232.38;5060442;28;20252;-74
2023/01/29 04:24:34;;;;;;;5.70;5.20;;;;;;;1.83;84.90;95234.00;5064192;28;20205;-79
2023/01/29 04:27:13;;;;;;;4.97;4.57;;;;;;;1.89;85.30;95233.19;5060273;28;20239;-75
2023/01/29 04:29:50;;;;;;;5.80;5.20;;;;;;;1.86;85.85;95236.53;5061070;28;20745;-74
2023/01/29 04:32:25;;;;;;;6.40;5.20;;;;;;;1.87;85.51;95235.69;5065922;28;20232;-78
2023/01/29 04:35:00;;;;;;;6.83;5.17;;;;;;;1.84;85.07;95235.69;5064397;28;21842;-74
2023/01/29 04:37:36;;;;;;;5.50;5.03;;;;;;;1.94;85.17;95241.56;5063677;28;20293;-74
2023/01/29 04:40:13;;;;;;;5.90;5.30;;;;;;;1.90;84.81;95240.72;5065794;28;20313;-78
2023/01/29 04:42:46;;;;;;;5.80;5.13;;;;;;;1.88;85.54;95237.38;5063870;28;20258;-74
2023/01/29 04:45:20;;;;;;;6.47;4.70;;;;;;;1.94;85.35;95237.41;5063144;28;20748;-77
2023/01/29 04:47:55;;;;;;;6.00;5.50;;;;;;;1.89;84.41;95235.69;5064507;28;20217;-76
2023/01/29 04:50:28;;;;;;;6.00;5.50;;;;;;;1.89;84.75;95236.53;5064335;28;20256;-75
2023/01/29 04:53:04;;;;;;;7.50;5.53;;;;;;;1.85;85.10;95244.88;5064731;28;20209;-74
2023/01/29 04:55:39;;;;;;;5.80;5.30;;;;;;;1.81;85.66;95230.66;5066433;28;20246;-76
2023/01/29 04:58:12;;;;;;;5.03;4.57;;;;;;;1.85;85.32;95232.34;5064930;28;20202;-74
2023/01/29 05:00:42;;;;;;;5.50;5.07;;;;;;;1.95;84.73;95244.06;5065141;28;20241;-78
2023/01/29 05:03:12;;;;;;;5.13;4.73;;;;;;;1.84;84.97;95245.72;5066153;28;20201;-75
2023/01/29 05:05:41;;;;;;;5.27;4.80;;;;;;;1.90;85.21;95242.38;5064979;28;20663;-77
2023/01/29 05:08:12;;;;;;;4.87;4.47;;;;;;;1.89;84.73;95244.06;5064507;28;20206;-78
2023/01/29 05:10:39;;;;;;;6.07;5.23;;;;;;;1.89;84.42;95246.56;5065577;28;20193;-75
2023/01/29 05:13:11;;;;;;;5.50;5.00;;;;;;;1.97;84.82;95252.44;5062839;28;20644;-75
2023/01/29 05:15:40;;;;;;;5.17;4.77;;;;;;;1.84;85.29;95235.69;5063658;28;20669;-75
2023/01/29 05:18:09;;;;;;;4.80;4.40;;;;;;;1.94;84.71;95249.91;5064475;28;20230;-77
2023/01/29 05:20:39;;;;;;;5.03;4.53;;;;;;;1.79;85.03;95232.31;5063672;28;20233;-75
2023/01/29 05:23:10;;;;;;;5.37;4.47;;;;;;;1.93;84.96;95254.94;5064801;28;20203;-78
2023/01/29 05:25:37;;;;;;;5.10;4.70;;;;;;;1.99;85.12;95254.91;5063985;28;20210;-74
2023/01/29 05:28:04;;;;;;;5.28;4.75;;;;;;;2.00;84.02;95259.94;5062667;28;20217;-73
2023/01/29 05:30:31;;;;;;;4.57;4.17;;;;;;;1.91;84.18;95256.59;5064271;28;20206;-74
2023/01/29 05:32:58;;;;;;;5.33;4.83;;;;;;;1.87;84.39;95260.75;5064396;28;20255;-75
2023/01/29 05:35:24;;;;;;;5.97;4.57;;;;;;;1.99;83.98;95265.78;5062733;28;20260;-75
2023/01/29 05:37:52;;;;;;;5.30;4.90;;;;;;;2.01;83.08;95264.13;5064602;28;20205;-74
2023/01/29 05:40:19;;;;;;;6.07;5.10;;;;;;;1.97;82.84;95262.47;5063002;28;20324;-76
2023/01/29 05:42:46;;;;;;;4.87;4.37;;;;;;;1.96;83.77;95264.97;5063391;28;20206;-77
2023/01/29 05:45:13;;;;;;;5.23;4.83;;;;;;;1.96;83.37;95269.97;5064368;28;20205;-73
2023/01/29 05:47:39;;;;;;;5.57;5.00;;;;;;;1.95;83.76;95269.13;5063223;28;20210;-75
2023/01/29 05:50:07;;;;;;;6.57;4.87;;;;;;;1.96;83.35;95270.81;5066094;28;20630;-75
2023/01/29 05:52:34;;;;;;;5.73;5.23;;;;;;;1.94;84.35;95277.50;5064551;28;20209;-74
2023/01/29 05:55:02;;;;;;;5.93;5.43;;;;;;;1.92;84.63;95280.81;5064975;28;20210;-76
2023/01/29 05:57:29;;;;;;;4.80;4.33;;;;;;;1.97;83.84;95272.50;5065199;28;20217;-78
2023/01/29 05:59:55;;;;;;;4.73;4.23;;;;;;;1.91;84.51;95279.97;5063117;28;20230;-76
2023/01/29 06:02:22;;;;;;;5.77;5.27;;;;;;;1.93;84.58;95285.84;5064842;28;20213;-76
2023/01/29 06:04:51;;;;;;;8.37;5.60;;;;;;;1.75;84.87;95265.72;5063057;28;20201;-75
2023/01/29 06:07:18;;;;;;;5.83;5.33;;;;;;;2.01;84.88;95289.19;5066115;28;20212;-75
2023/01/29 06:09:45;;;;;;;6.77;5.70;;;;;;;2.00;84.60;95292.53;5063228;28;20676;-73
2023/01/29 06:12:13;;;;;;;6.03;5.53;;;;;;;1.98;85.15;95295.88;5063547;28;21373;-75
2023/01/29 06:14:40;;;;;;;6.70;6.10;;;;;;;2.00;84.82;95292.53;5064224;28;20206;-77
2023/01/29 06:17:06;;;;;;;9.13;6.10;;;;;;;2.06;85.54;95304.25;5064955;28;20820;-77
2023/01/29 06:19:33;;;;;;;6.33;5.83;;;;;;;2.11;85.65;95304.25;5064680;28;20217;-78
2023/01/29 06:22:00;;;;;;;6.17;5.57;;;;;;;2.16;84.97;95307.63;5064195;28;20635;-75
2023/01/29 06:24:26;;;;;;;6.23;5.63;;;;;;;2.21;85.35;95311.00;5065058;28;20310;-72
2023/01/29 06:26:53;;;;;;;7.40;6.67;;;;;;;2.30;85.23;95314.34;5063422;28;20667;-75
2023/01/29 06:29:21;;;;;;;6.27;5.67;;;;;;;2.31;84.48;95315.16;5062825;28;20210;-75
2023/01/29 06:31:48;;;;;;;11.27;6.57;;;;;;;2.31;85.59;95320.19;5063468;28;20206;-76
2023/01/29 06:34:15;;;;;;;6.87;6.27;;;;;;;2.42;84.98;95321.06;5063099;28;20206;-78
2023/01/29 06:36:41;;;;;;;6.67;6.07;;;;;;;2.56;83.56;95324.41;5062317;28;20233;-74
2023/01/29 06:39:09;;;;;;;7.30;6.57;;;;;;;2.58;83.70;95322.75;5063141;28;20780;-72
2023/01/29 06:41:35;;;;;;;10.83;6.47;;;;;;;2.66;83.40;95321.09;5063169;28;20230;-74
2023/01/29 06:44:02;;;;;;;8.07;6.23;;;;;;;2.64;83.34;95330.28;5062635;28;20449;-73
2023/01/29 06:46:31;;;;;;;8.13;7.33;;;;;;;2.71;82.99;95321.94;5062698;28;20211;-75
2023/01/29 06:48:59;;;;;;;11.07;7.00;;;;;;;2.73;83.44;95322.75;5062693;28;20206;-78
2023/01/29 06:51:26;;;;;;;8.63;7.10;;;;;;;2.83;82.48;95327.78;5062792;28;20202;-77
2023/01/29 06:53:54;;;;;;;8.73;7.87;;;;;;;2.88;81.83;95334.47;5064019;28;20203;-75
2023/01/29 06:56:21;;;;;;;7.00;6.43;;;;;;;2.70;82.00;95314.41;5063243;28;20292;-75
2023/01/29 06:58:48;;;;;;;7.07;5.95;;;;;;;2.89;82.33;95337.84;5064055;28;20255;-75
2023/01/29 07:01:15;;;;;;;8.07;7.27;;;;;;;3.00;82.27;95336.13;5063125;28;20271;-74
2023/01/29 07:03:43;;;;;;;8.43;7.57;;;;;;;3.12;81.46;95340.34;5062802;28;20268;-75
2023/01/29 07:06:10;;;;;;;7.70;7.00;;;;;;;3.13;81.82;95342.84;5061869;28;20256;-74
2023/01/29 07:08:37;;;;;;;8.10;6.90;;;;;;;3.22;80.17;95344.50;5062975;28;20210;-74
2023/01/29 07:11:04;;;;;;;9.10;8.20;;;;;;;3.21;79.47;95348.72;5063830;28;20197;-75
2023/01/29 07:13:31;;;;;;;8.77;7.93;;;;;;;3.19;79.72;95347.88;5062750;28;20201;-76
2023/01/29 07:15:59;;;;;;;8.20;7.37;;;;;;;3.18;80.03;95340.34;5061505;28;20263;-73
2023/01/29 07:18:25;;;;;;;11.27;9.60;;;;;;;3.18;80.70;95366.28;5062137;28;20623;-73
2023/01/29 07:20:54;;;;;;;9.80;8.03;;;;;;;3.19;80.68;95362.94;5061667;28;20229;-73
2023/01/29 07:23:21;;;;;;;7.37;6.53;;;;;;;3.04;80.88;95347.84;5062017;28;20201;-76
2023/01/29 07:25:48;;;;;;;8.63;7.70;;;;;;;3.16;80.86;95365.44;5062953;28;21362;-75
2023/01/29 07:28:15;;;;;;;10.47;7.87;;;;;;;3.12;80.75;95361.25;5062492;28;20225;-76
2023/01/29 07:30:42;;;;;;;10.10;8.00;;;;;;;3.15;79.78;95366.28;5063125;28;20202;-77
2023/01/29 07:33:10;;;;;;;10.87;8.00;;;;;;;3.15;80.36;95366.28;5061357;28;20274;-74
2023/01/29 07:35:38;;;;;;;8.07;7.23;;;;;;;3.17;80.24;95369.63;5062751;28;20206;-74
2023/01/29 07:38:06;;;;;;;8.77;7.57;;;;;;;3.13;81.02;95367.13;5062030;28;20205;-77
2023/01/29 07:40:33;;;;;;;7.90;7.10;;;;;;;3.17;80.21;95369.63;5061919;28;20749;-82
2023/01/29 07:43:01;;;;;;;7.87;7.07;;;;;;;3.12;80.35;95370.47;5063234;28;20270;-75
2023/01/29 07:45:28;;;;;;;6.63;6.03;;;;;;;3.10;80.04;95365.44;5061927;28;21079;-76
2023/01/29 07:47:56;;;;;;;9.60;6.97;;;;;;;3.16;79.62;95367.13;5062176;28;20206;-74
2023/01/29 07:50:24;;;;;;;9.23;8.13;;;;;;;2.98;79.63;95345.34;5062447;28;20206;-76
2023/01/29 07:52:50;;;;;;;10.77;7.60;;;;;;;3.17;80.08;95374.66;5060135;28;20205;-79
2023/01/29 07:55:18;;;;;;;13.23;8.40;;;;;;;3.18;79.86;95371.31;5062779;28;20205;-79
2023/01/29 07:57:45;;;;;;;6.67;6.07;;;;;;;3.23;79.70;95374.63;5059537;28;20198;-79
2023/01/29 08:00:13;;;;;;;10.53;8.00;;;;;;;3.15;79.10;95355.41;5061411;28;20230;-73
2023/01/29 08:02:40;;;;;;;18.87;12.07;;;;;;;3.28;79.95;95383.00;5059552;28;20197;-76
2023/01/29 08:05:08;;;;;;;20.63;14.00;;;;;;;3.25;79.99;95383.00;5062686;28;20213;-77
2023/01/29 08:07:35;;;;;;;8.50;7.70;;;;;;;3.27;79.46;95380.50;5066367;28;20217;-76
2023/01/29 08:10:02;;;;;;;25.73;16.40;;;;;;;3.20;79.86;95382.19;5065621;28;20699;-80
2023/01/29 08:12:30;;;;;;;18.57;11.73;;;;;;;3.30;78.85;95390.53;5063663;28;20288;-73
2023/01/29 08:14:56;;;;;;;10.07;7.27;;;;;;;3.36;78.78;95388.88;5067827;28;20217;-78
2023/01/29 08:17:23;;;;;;;9.30;7.37;;;;;;;3.34;78.89;95393.06;5064774;28;20241;-76
2023/01/29 08:19:50;;;;;;;8.83;6.87;;;;;;;3.40;78.76;95393.06;5066433;28;20204;-74
2023/01/29 08:22:16;;;;;;;7.97;7.17;;;;;;;3.37;78.80;95393.06;5065546;28;20226;-81
2023/01/29 08:24:43;;;;;;;8.77;7.50;;;;;;;3.46;77.35;95393.91;5065145;28;20202;-79
2023/01/29 08:27:10;;;;;;;10.03;7.13;;;;;;;3.47;77.80;95393.03;5067173;28;20198;-82
2023/01/29 08:29:38;;;;;;;8.20;7.17;;;;;;;3.51;77.34;95399.75;5066566;28;20214;-79
2023/01/29 08:32:05;;;;;;;12.80;9.17;;;;;;;3.29;77.15;95403.94;5066304;28;20202;-74
2023/01/29 08:34:32;;;;;;;12.43;8.97;;;;;;;3.25;78.20;95402.25;5064363;28;20593;-78
2023/01/29 08:36:58;;;;;;;11.50;8.87;;;;;;;3.30;77.66;95408.97;5065855;28;20198;-80
2023/01/29 08:39:25;;;;;;;10.33;8.13;;;;;;;3.27;77.80;95411.47;5064682;28;20226;-78
2023/01/29 08:41:52;;;;;;;8.47;7.63;;;;;;;3.27;77.95;95406.44;5065578;28;20232;-77
2023/01/29 08:44:18;;;;;;;14.13;9.83;;;;;;;3.31;77.78;95414.81;5064846;28;20969;-78
2023/01/29 08:46:46;;;;;;;11.10;8.43;;;;;;;3.35;77.69;95404.78;5064728;28;20218;-77
2023/01/29 08:49:13;;;;;;;12.73;8.97;;;;;;;3.53;77.82;95418.16;5064383;28;20260;-78
2023/01/29 08:51:40;;;;;;;11.87;9.63;;;;;;;3.58;76.92;95417.31;5065987;28;20202;-79
2023/01/29 08:54:06;;;;;;;16.37;10.03;;;;;;;3.59;75.94;95418.16;5065910;28;20195;-78
2023/01/29 08:56:33;;;;;;;10.53;8.67;;;;;;;3.53;76.40;95415.66;5065880;28;20320;-79
2023/01/29 08:59:00;;;;;;;12.83;7.77;;;;;;;3.56;76.13;95423.19;5066147;28;20811;-76
2023/01/29 09:01:27;;;;;;;11.00;8.67;;;;;;;3.58;76.08;95427.38;5067309;28;20233;-82
2023/01/29 09:03:55;;;;;;;9.03;6.90;;;;;;;3.58;75.64;95431.56;5065819;28;20795;-76
2023/01/29 09:06:21;;;;;;;8.60;7.70;;;;;;;3.58;75.97;95421.53;5063919;28;20217;-80
2023/01/29 09:08:48;;;;;;;40.67;20.97;;;;;;;3.69;76.01;95430.72;5065848;28;20212;-77
2023/01/29 09:11:15;;;;;;;11.47;8.50;;;;;;;3.80;74.92;95423.16;5067811;28;20205;-85
2023/01/29 09:13:42;;;;;;;11.40;8.47;;;;;;;3.76;74.62;95427.34;5066177;28;20212;-80
2023/01/29 09:16:10;;;;;;;11.73;9.97;;;;;;;3.68;74.94;95428.22;5066529;28;20210;-76
2023/01/29 09:18:36;;;;;;;13.97;10.13;;;;;;;3.66;75.63;95419.84;5061833;28;20236;-80
2023/01/29 09:21:05;;;;;;;8.90;7.73;;;;;;;3.79;75.61;95430.69;5063896;28;20217;-79
2023/01/29 09:23:32;;;;;;;12.40;9.07;;;;;;;3.75;74.71;95429.88;5066263;28;20667;-79
2023/01/29 09:25:59;;;;;;;12.30;9.63;;;;;;;3.75;75.53;95424.84;5062715;28;20224;-76
2023/01/29 09:28:26;;;;;;;10.73;9.47;;;;;;;3.80;76.03;95427.34;5065303;28;20262;-79
2023/01/29 09:30:53;;;;;;;11.80;10.13;;;;;;;3.72;75.89;95424.84;5064376;28;20918;-77
2023/01/29 09:33:20;;;;;;;9.03;8.13;;;;;;;3.76;74.90;95426.50;5063161;28;20202;-83
2023/01/29 09:35:46;;;;;;;11.02;8.18;;;;;;;3.72;75.03;95424.84;5063684;28;20360;-78
2023/01/29 09:38:14;;;;;;;9.70;8.60;;;;;;;3.66;75.11;95414.81;5064249;28;20547;-75
2023/01/29 09:40:53;;;;;;;10.07;7.87;;;;;;;3.69;75.28;95405.59;5065788;28;20302;-79
2023/01/29 09:43:24;;;;;;;10.40;9.00;;;;;;;3.75;75.25;95402.22;5064490;28;20206;-79
2023/01/29 09:45:56;;;;;;;12.03;8.67;;;;;;;3.68;75.14;95413.13;5062991;28;20215;-79
2023/01/29 09:48:28;;;;;;;9.30;8.20;;;;;;;3.75;74.95;95409.75;5065089;28;20263;-78
2023/01/29 09:50:58;;;;;;;7.57;6.93;;;;;;;3.83;74.66;95408.06;5064887;28;20336;-80
2023/01/29 09:53:35;;;;;;;14.00;8.47;;;;;;;3.78;74.59;95409.75;5064233;28;20714;-77
2023/01/29 09:56:06;;;;;;;9.70;8.10;;;;;;;3.74;74.83;95405.56;5063593;28;20210;-78
2023/01/29 09:58:35;;;;;;;17.17;10.20;;;;;;;3.74;74.98;95413.09;5065731;28;20241;-76
2023/01/29 10:01:13;;;;;;;17.43;11.97;;;;;;;3.68;75.45;95413.97;5063008;28;20221;-78
2023/01/29 10:03:54;;;;;;;11.60;9.70;;;;;;;3.60;75.44;95407.28;5064838;28;20205;-74
2023/01/29 10:06:30;;;;;;;12.50;9.13;;;;;;;3.66;75.88;95404.75;5063410;28;20736;-79
2023/01/29 10:09:24;;;;;;;9.87;7.60;;;;;;;3.73;74.84;95408.91;5062577;28;20213;-75
2023/01/29 10:12:04;;;;;;;8.90;7.67;;;;;;;3.67;74.95;95398.91;5062451;28;20639;-79
2023/01/29 10:14:44;;;;;;;11.37;7.23;;;;;;;3.53;75.36;95395.56;5062703;28;20206;-81
2023/01/29 10:17:25;;;;;;;12.20;8.70;;;;;;;3.57;75.82;95397.22;5062784;28;20252;-78
2023/01/29 10:20:06;;;;;;;16.43;9.57;;;;;;;3.50;75.53;95383.00;5064082;28;20210;-78
2023/01/29 10:22:52;;;;;;;10.00;7.63;;;;;;;3.41;75.88;95388.88;5064138;28;20762;-79
2023/01/29 10:25:22;;;;;;;10.07;8.40;;;;;;;3.24;76.66;95378.81;5064352;28;21034;-76
2023/01/29 10:27:53;;;;;;;12.30;8.63;;;;;;;3.30;77.14;95386.38;5063413;28;20632;-80
2023/01/29 10:30:33;;;;;;;12.77;8.63;;;;;;;3.21;77.00;95383.88;5062660;28;20739;-80
2023/01/29 10:33:03;;;;;;;12.38;9.18;;;;;;;3.13;77.31;95360.44;5064123;28;20197;-79
2023/01/29 10:35:34;;;;;;;11.63;9.33;;;;;;;3.30;76.84;95381.34;5064795;28;20202;-75
2023/01/29 10:38:15;;;;;;;16.23;10.43;;;;;;;3.28;76.81;95380.50;5064272;28;20648;-82
2023/01/29 10:40:50;;;;;;;11.50;9.00;;;;;;;3.21;76.63;95370.47;5063759;28;21190;-76
2023/01/29 10:43:23;;;;;;;11.77;8.65;;;;;;;3.27;77.21;95375.47;5065217;28;20768;-77
2023/01/29 10:46:02;;;;;;;27.00;15.52;;;;;;;3.31;77.26;95387.19;5064174;28;20251;-79
2023/01/29 10:48:49;;;;;;;32.20;18.47;;;;;;;3.32;77.72;95379.66;5062533;28;20221;-80
2023/01/29 10:51:27;;;;;;;19.67;12.97;;;;;;;3.36;78.04;95383.00;5065211;28;20202;-80
2023/01/29 10:54:07;;;;;;;17.80;11.63;;;;;;;3.50;77.13;95377.97;5062330;28;20684;-77
2023/01/29 10:56:54;;;;;;;12.70;10.17;;;;;;;3.47;76.73;95367.91;5063766;28;20238;-83
2023/01/29 10:59:37;;;;;;;17.13;12.00;;;;;;;3.39;76.67;95371.28;5061330;28;20229;-78
2023/01/29 11:02:15;;;;;;;22.27;12.33;;;;;;;3.51;76.68;95369.59;5063403;28;20242;-78
2023/01/29 11:04:41;;;;;;;18.37;11.40;;;;;;;3.53;76.78;95373.78;5063349;28;20528;-79
2023/01/29 11:07:08;;;;;;;16.83;11.17;;;;;;;3.53;76.99;95367.91;5061670;28;20578;-76
2023/01/29 11:09:39;;;;;;;38.60;19.97;;;;;;;3.50;76.96;95357.88;5063343;28;20206;-77
2023/01/29 11:12:13;;;;;;;17.60;11.07;;;;;;;3.51;75.90;95347.81;5064601;28;20733;-79
2023/01/29 11:14:45;;;;;;;24.55;14.18;;;;;;;3.47;76.81;95363.72;5064103;28;20255;-81
2023/01/29 11:17:16;;;;;;;15.63;10.67;;;;;;;3.47;77.51;95351.16;5064584;28;20674;-84
2023/01/29 11:19:44;;;;;;;17.42;11.13;;;;;;;3.40;76.38;95352.03;5062191;28;20667;-79
2023/01/29 11:22:14;;;;;;;12.43;9.75;;;;;;;3.46;76.81;95354.53;5062262;28;20878;-77
2023/01/29 11:24:41;;;;;;;17.33;10.90;;;;;;;3.57;76.02;95354.50;5062586;28;20307;-77
2023/01/29 11:27:21;;;;;;;16.07;10.93;;;;;;;3.46;76.09;95331.94;5062995;28;20228;-82
2023/01/29 11:29:49;;;;;;;16.57;11.03;;;;;;;3.55;76.68;95346.97;5063060;28;20219;-83
2023/01/29 11:32:26;;;;;;;15.13;11.07;;;;;;;3.55;76.17;95341.09;5063477;28;20198;-82
2023/01/29 11:35:00;;;;;;;15.80;11.00;;;;;;;3.58;77.15;95346.13;5064446;28;20283;-81
2023/01/29 11:37:36;;;;;;;15.95;10.82;;;;;;;3.75;75.39;95335.19;5062088;28;20578;-81
2023/01/29 11:40:35;;;;;;;17.10;11.67;;;;;;;3.82;74.92;95330.97;5063148;28;20233;-82
2023/01/29 11:43:21;;;;;;;16.90;10.77;;;;;;;3.92;75.63;95327.59;5061777;28;20282;-81
2023/01/29 11:45:50;;;;;;;17.23;11.60;;;;;;;4.03;74.24;95325.88;5062637;28;20206;-80
2023/01/29 11:48:19;;;;;;;16.30;10.55;;;;;;;4.07;74.69;95327.53;5062162;28;20202;-83
2023/01/29 11:50:53;;;;;;;18.15;12.52;;;;;;;4.18;73.68;95324.16;5061441;28;20235;-82
2023/01/29 11:53:39;;;;;;;15.93;11.40;;;;;;;4.23;73.74;95328.28;5062357;28;20764;-84
2023/01/29 11:56:17;;;;;;;15.00;11.00;;;;;;;4.12;73.77;95306.56;5061510;28;20733;-82
2023/01/29 11:58:46;;;;;;;13.05;9.85;;;;;;;4.27;73.52;95324.06;5063552;28;20206;-82
2023/01/29 12:01:17;;;;;;;16.80;10.93;;;;;;;4.35;73.16;95324.88;5060685;28;20283;-83
2023/01/29 12:03:50;;;;;;;16.45;9.25;;;;;;;4.47;73.20;95327.31;5061734;28;20336;-82
2023/01/29 12:06:20;;;;;;;15.80;10.88;;;;;;;4.56;72.85;95312.16;5063057;28;20210;-82
2023/01/29 12:08:55;;;;;;;18.85;11.27;;;;;;;4.63;72.24;95305.41;5060652;28;20206;-76
2023/01/29 12:11:27;;;;;;;13.23;10.70;;;;;;;4.78;71.53;95311.16;5062611;28;20205;-75
2023/01/29 12:13:56;;;;;;;16.48;10.27;;;;;;;4.82;71.14;95312.00;5062630;28;20206;-81
2023/01/29 12:16:28;;;;;;;18.10;10.95;;;;;;;4.73;71.44;95315.41;5063782;28;20202;-80
2023/01/29 12:19:01;;;;;;;15.17;11.10;;;;;;;4.61;71.61;95318.03;5062501;28;20711;-74
2023/01/29 12:21:36;;;;;;;17.38;11.45;;;;;;;4.64;71.88;95310.44;5061564;28;20706;-83